Thursday, April 26, 2018, 5:37 AM EDT
Back to Local

KFOK, The Gabreski Airport

Location: East Quogue, NY, United States Lat: 40.85
Local Time: 5:37 AM EDT ( 9:37 GMT) Lon: -72.617
Time Zone: US/Eastern Elev: 65 ft

Show me the last for .
Show Decoded

2018-04-26 05:04 METAR KFOK 260904Z AUTO 25004KT 1/2SM FG VV002 11/09 A2960 RMK AO2 T01060094 =
2018-04-26 04:53 METAR KFOK 260853Z AUTO 25005KT 1/4SM FG VV002 11/09 A2960 RMK AO2 SLP022 60001
                 T01060094 55010 =
2018-04-26 04:45 METAR KFOK 260845Z AUTO 25005KT 1/2SM FG VV002 11/09 A2960 RMK AO2 T01060089 =
2018-04-26 03:53 METAR KFOK 260753Z AUTO 00000KT 1/4SM FG VV002 11/10 A2958 RMK AO2 SLP016
                 T01060100 =
2018-04-26 02:53 METAR KFOK 260653Z AUTO 00000KT 1/4SM FG VV002 11/11 A2960 RMK AO2 RAE07B37E49
                 SLP023 P0001 T01060106 =
2018-04-26 01:53 METAR KFOK 260553Z AUTO 15005KT 1/4SM -RA FG VV002 11/09 A2963 RMK AO2 RAB44
                 SLP032 P0000 60000 T01060094 10128 20106 58014 =
2018-04-26 00:53 METAR KFOK 260453Z AUTO 21003KT 1/4SM FG VV002 11/10 A2965 RMK AO2 SLP039
                 T01060100 401390100 =
2018-04-25 23:53 METAR KFOK 260353Z AUTO 19003KT 1/4SM FG VV002 11/11 A2967 RMK AO2 SLP047
                 T01110106 =
2018-04-25 23:34 METAR KFOK 260334Z AUTO 17005KT 1/2SM FG VV002 11/11 A2968 RMK AO2 T01110106 =
2018-04-25 23:20 METAR KFOK 260320Z AUTO 19005KT 1/4SM FG VV002 12/11 A2968 RMK AO2 T01170111 =
2018-04-25 22:53 METAR KFOK 260253Z 21008KT 1/2SM FG VV002 11/11 A2969 RMK AO2 SLP053 60000
                 T01110106 58004 =
2018-04-25 22:51 METAR KFOK 260251Z 20007KT 1/2SM FG VV002 11/11 A2969 RMK AO2 =
2018-04-25 21:53 METAR KFOK 260153Z 21005KT 1/4SM FG VV002 11/11 A2970 RMK AO2 SLP059 T01110106 =
2018-04-25 21:30 METAR KFOK 260130Z 18007KT 1/4SM FG VV002 11/11 A2970 RMK AO2 T01110106 =
2018-04-25 20:53 METAR KFOK 260053Z 16006KT 1/2SM FG VV002 12/11 A2970 RMK AO2 RAE12 SLP057 P0000
                 T01220111 =
2018-04-25 20:37 METAR KFOK 260037Z 16010KT 3/4SM BR VV002 12/12 A2970 RMK AO2 RAE12 P0000
                 T01220117 =
2018-04-25 20:16 METAR KFOK 260016Z 16008KT 1 3/4SM BR OVC002 13/12 A2970 RMK AO2 RAE12 P0000
                 T01280117 =
2018-04-25 20:08 METAR KFOK 260008Z VRB04KT 4SM -RA BR OVC002 13/12 A2970 RMK AO2 P0000 T01280117
                 =
2018-04-25 19:53 METAR KFOK 252353Z 15009G15KT 4SM -TSRA BR BKN003 OVC011 12/11 A2971 RMK AO2
                 RAB44 TSB47 SLP059 P0001 60027 T01220111 10139 20117 56012 =
2018-04-25 19:19 METAR KFOK 252319Z 17010G14KT 140V210 3SM BR OVC002 13/12 A2971 RMK AO2 LTG DSNT
                 N T01330122 =
2018-04-25 18:53 METAR KFOK 252253Z 16005KT 1SM BR OVC002 13/12 A2971 RMK AO2 RAE26 SLP059 P0010
                 T01280122 =
2018-04-25 18:22 METAR KFOK 252222Z 16005KT 1SM -RA BR BKN003 BKN008 OVC014 13/13 A2972 RMK AO2
                 P0010 T01330128 =
2018-04-25 18:04 METAR KFOK 252204Z 18005KT 1SM -RA BR SCT003 SCT009 OVC014 13/13 A2973 RMK AO2
                 P0002 T01330128 =
2018-04-25 18:01 METAR KFOK 252201Z 17006KT 2 1/2SM -RA BR SCT003 BKN009 OVC016 13/12 A2973 RMK
                 AO2 VIS 1 1/2V4 P0002 T01330122 =
2018-04-25 17:53 METAR KFOK 252153Z 15005KT 1SM RA BR BKN004 BKN010 OVC016 13/12 A2973 RMK AO2
                 RAB2054E04B41 SLP067 P0015 T01330122 =
2018-04-25 17:43 METAR KFOK 252143Z 16006KT 1 1/2SM -RA BR BKN002 OVC014 13/12 A2973 RMK AO2
                 RAB2054E04B41 P0007 T01280122 =
2018-04-25 17:10 METAR KFOK 252110Z 16008G16KT 3SM BR OVC002 13/13 A2974 RMK AO2 RAB2054E04 P0000
                 T01330128 =
2018-04-25 16:53 METAR KFOK 252053Z 16007G16KT 1 1/4SM BR OVC002 13/12 A2974 RMK AO2 RAB40E51
                 SLP071 P0000 60001 T01330122 56011 =
2018-04-25 16:51 METAR KFOK 252051Z 16011G16KT 1 1/4SM BR OVC002 13/12 A2974 RMK AO2 RAB40E51
                 P0000 =
2018-04-25 16:28 METAR KFOK 252028Z 15012G16KT 1/2SM FG VV002 13/12 A2975 RMK AO2 T01330122 =
2018-04-25 15:53 METAR KFOK 251953Z 12007G16KT 1/4SM FG VV002 12/11 A2975 RMK AO2 SLP075
                 T01220111 =
2018-04-25 14:53 METAR KFOK 251853Z 12009G17KT 3/4SM BR OVC002 12/11 A2978 RMK AO2 RAE05 SLP082
                 P0001 T01220111 =
2018-04-25 14:39 METAR KFOK 251839Z 12011G21KT 3/4SM BR OVC002 12/11 A2978 RMK AO2 RAE05 P0001
                 T01170111 =
2018-04-25 14:17 METAR KFOK 251817Z 14008G17KT 1 3/4SM BR OVC002 12/11 A2979 RMK AO2 RAE05 P0000
                 T01220111 =
2018-04-25 13:58 METAR KFOK 251758Z 12012G20KT 3SM -RA BR BKN004 OVC010 13/12 A2980 RMK AO2 P0000
                 T01280117 =
2018-04-25 13:53 METAR KFOK 251753Z 11009G17KT 1 1/2SM -RA BR BKN004 OVC010 13/12 A2981 RMK AO2
                 RAB26 SLP093 P0005 60030 T01330122 10133 20100 56040 =
2018-04-25 13:39 METAR KFOK 251739Z 12010G17KT 1SM RA BR BKN002 OVC010 12/11 A2982 RMK AO2 RAB26
                 P0003 T01170111 =
2018-04-25 13:27 METAR KFOK 251727Z 12010G18KT 1/2SM -RA FG VV002 11/10 A2982 RMK AO2 RAB26 P0000
                 T01110100 =
2018-04-25 13:17 METAR KFOK 251717Z 11011G19KT 1/4SM FG VV002 11/11 A2983 RMK AO2 T01110106 =
2018-04-25 12:53 METAR KFOK 251653Z 12011G19KT 1/2SM FG VV002 11/10 A2984 RMK AO2 RAE16B21E47
                 SLP105 P0004 T01110100 =
2018-04-25 12:34 METAR KFOK 251634Z 11008G17KT 3/4SM -RA BR OVC002 11/10 A2985 RMK AO2 RAE16B21
                 P0004 T01110100 =
2018-04-25 12:19 METAR KFOK 251619Z 12011G18KT 1 3/4SM BR OVC002 12/11 A2986 RMK AO2 RAE16 P0002
                 T01170106 =
2018-04-25 12:06 METAR KFOK 251606Z 10010G18KT 3SM -RA BR OVC003 11/10 A2986 RMK AO2 PRESFR P0002
                 T01110100 =
2018-04-25 11:53 METAR KFOK 251553Z 11011G17KT 1SM RA BR OVC002 11/10 A2988 RMK AO2 SLP119 P0009
                 T01110100 =
2018-04-25 11:32 METAR KFOK 251532Z 10010G18KT 1 3/4SM -RA BR OVC002 11/10 A2990 RMK AO2 P0001
                 T01110100 =
2018-04-25 11:09 METAR KFOK 251509Z 11010G18KT 2SM -RA BR OVC002 11/10 A2991 RMK AO2 P0001
                 T01110100 =
2018-04-25 10:53 METAR KFOK 251453Z 11010G18KT 1 1/2SM -RA BR OVC002 11/10 A2992 RMK AO2 SLP133
                 P0004 60012 T01060100 56030 =
2018-04-25 10:46 METAR KFOK 251446Z 11011G18KT 1 1/2SM -RA BR OVC002 11/10 A2992 RMK AO2 P0004
                 T01110100 =
2018-04-25 10:39 METAR KFOK 251439Z 10012G17KT 2SM -RA BR OVC002 11/10 A2993 RMK AO2 P0003
                 T01110100 =
2018-04-25 10:27 METAR KFOK 251427Z 10007G16KT 3SM -RA BR OVC002 11/09 A2994 RMK AO2 P0003
                 T01060094 =
2018-04-25 09:53 METAR KFOK 251353Z 10009G15KT 1SM RA BR OVC002 11/10 A2995 RMK AO2 SLP142 P0008
                 T01110100 =
2018-04-25 08:53 METAR KFOK 251253Z 10007KT 1 1/4SM -RA BR OVC002 11/09 A2998 RMK AO2
                 RAE00B19E28B47 SLP152 P0000 T01060094 =
2018-04-25 08:39 METAR KFOK 251239Z 11006KT 1 3/4SM BR OVC002 11/09 A2999 RMK AO2 RAE00B19E28
                 P0000 T01060094 =
2018-04-25 08:18 METAR KFOK 251218Z 12008KT 2SM BR OVC002 11/09 A3000 RMK AO2 RAE00 P0000
                 T01060094 =
2018-04-25 08:07 METAR KFOK 251207Z 11009G16KT 1 1/2SM BR OVC002 10/09 A3001 RMK AO2 RAE00 P0000
                 T01000094 =
2018-04-25 07:53 METAR KFOK 251153Z 12010G16KT 2SM -RA BR OVC002 10/09 A3001 RMK AO2 SLP164 P0002
                 60010 70010 T01000089 10111 20100 56017 =
2018-04-25 07:33 METAR KFOK 251133Z 12009G17KT 1 3/4SM -RA BR OVC003 10/09 A3001 RMK AO2 P0001
                 T01000089 =
2018-04-25 07:16 METAR KFOK 251116Z 10008KT 4SM -RA BR OVC003 10/09 A3002 RMK AO2 P0001 T01000089
                 =
2018-04-25 07:06 METAR KFOK 251106Z 11009G15KT 2 1/2SM -RA BR OVC003 10/09 A3003 RMK AO2 P0001
                 T01000089 =
2018-04-25 06:53 METAR KFOK 251053Z AUTO 10009G14KT 4SM -RA BR OVC003 10/09 A3003 RMK AO2 SLP169
                 P0001 T01000089 =
2018-04-25 06:24 METAR KFOK 251024Z AUTO 11008KT 7SM -RA OVC004 10/09 A3004 RMK AO2 P0000
                 T01000089 =
2018-04-25 05:53 METAR KFOK 250953Z AUTO 09008KT 7SM -RA BKN005 BKN023 OVC032 10/08 A3004 RMK AO2
                 SLP172 P0002 T01000083 =

Support USWX by starting your Amazon purchase here.